sensor_id;sensor_type;location;lat;lon;timestamp;pressure;altitude;pressure_sealevel;temperature;humidity
1616;BME280;801;47.982;7.810;2023-05-08T00:02:12;98886.66;;;17.20;100.00
1616;BME280;801;47.982;7.810;2023-05-08T00:04:38;98881.84;;;17.17;100.00
1616;BME280;801;47.982;7.810;2023-05-08T00:07:05;98879.28;;;17.07;100.00
1616;BME280;801;47.982;7.810;2023-05-08T00:09:33;98884.56;;;17.17;100.00
1616;BME280;801;47.982;7.810;2023-05-08T00:11:59;98878.94;;;16.95;100.00
1616;BME280;801;47.982;7.810;2023-05-08T00:14:26;98883.69;;;17.03;100.00
1616;BME280;801;47.982;7.810;2023-05-08T00:16:52;98888.97;;;17.13;100.00
1616;BME280;801;47.982;7.810;2023-05-08T00:19:19;98883.78;;;17.31;100.00
1616;BME280;801;47.982;7.810;2023-05-08T00:21:45;98881.38;;;17.29;100.00
1616;BME280;801;47.982;7.810;2023-05-08T00:24:11;98890.53;;;17.33;100.00
1616;BME280;801;47.982;7.810;2023-05-08T00:26:39;98890.53;;;17.33;100.00
1616;BME280;801;47.982;7.810;2023-05-08T00:29:08;98887.28;;;17.17;100.00
1616;BME280;801;47.982;7.810;2023-05-08T00:31:35;98892.47;;;17.33;100.00
1616;BME280;801;47.982;7.810;2023-05-08T00:34:01;98889.28;;;17.26;100.00
1616;BME280;801;47.982;7.810;2023-05-08T00:36:28;98887.09;;;17.28;100.00
1616;BME280;801;47.982;7.810;2023-05-08T00:38:54;98898.19;;;17.31;100.00
1616;BME280;801;47.982;7.810;2023-05-08T00:41:21;98880.84;;;17.27;100.00
1616;BME280;801;47.982;7.810;2023-05-08T00:43:49;98889.41;;;17.34;100.00
1616;BME280;801;47.982;7.810;2023-05-08T00:46:16;98895.59;;;17.40;100.00
1616;BME280;801;47.982;7.810;2023-05-08T00:48:43;98891.28;;;17.20;100.00
1616;BME280;801;47.982;7.810;2023-05-08T00:51:10;98887.31;;;17.31;100.00
1616;BME280;801;47.982;7.810;2023-05-08T00:53:38;98895.59;;;17.40;100.00
1616;BME280;801;47.982;7.810;2023-05-08T00:56:09;98895.59;;;17.40;100.00
1616;BME280;801;47.982;7.810;2023-05-08T00:58:36;98899.38;;;17.39;100.00
1616;BME280;801;47.982;7.810;2023-05-08T01:01:05;98908.66;;;17.38;100.00
1616;BME280;801;47.982;7.810;2023-05-08T01:03:34;98905.59;;;17.26;100.00
1616;BME280;801;47.982;7.810;2023-05-08T01:06:02;98906.03;;;17.33;100.00
1616;BME280;801;47.982;7.810;2023-05-08T01:08:29;98901.75;;;17.13;100.00
1616;BME280;801;47.982;7.810;2023-05-08T01:11:02;98902.31;;;17.10;100.00
1616;BME280;801;47.982;7.810;2023-05-08T01:13:41;98899.97;;;17.03;100.00
1616;BME280;801;47.982;7.810;2023-05-08T01:16:15;98901.47;;;16.95;100.00
1616;BME280;801;47.982;7.810;2023-05-08T01:18:46;98903.50;;;16.85;100.00
1616;BME280;801;47.982;7.810;2023-05-08T01:21:23;98904.91;;;16.82;100.00
1616;BME280;801;47.982;7.810;2023-05-08T01:24:08;98902.44;;;16.86;100.00
1616;BME280;801;47.982;7.810;2023-05-08T01:29:47;98909.03;;;16.74;100.00
1616;BME280;801;47.982;7.810;2023-05-08T01:32:22;98901.81;;;16.89;100.00
1616;BME280;801;47.982;7.810;2023-05-08T01:34:56;98908.75;;;16.76;100.00
1616;BME280;801;47.982;7.810;2023-05-08T01:37:28;98912.59;;;16.75;100.00
1616;BME280;801;47.982;7.810;2023-05-08T01:40:04;98908.25;;;16.74;100.00
1616;BME280;801;47.982;7.810;2023-05-08T01:42:40;98909.59;;;16.95;100.00
1616;BME280;801;47.982;7.810;2023-05-08T01:45:11;98914.06;;;17.05;100.00
1616;BME280;801;47.982;7.810;2023-05-08T01:47:41;98907.47;;;17.11;100.00
1616;BME280;801;47.982;7.810;2023-05-08T01:50:13;98906.44;;;17.07;100.00
1616;BME280;801;47.982;7.810;2023-05-08T01:52:44;98912.75;;;16.84;100.00
1616;BME280;801;47.982;7.810;2023-05-08T01:55:16;98908.94;;;16.85;100.00
1616;BME280;801;47.982;7.810;2023-05-08T01:57:46;98904.09;;;16.82;100.00
1616;BME280;801;47.982;7.810;2023-05-08T02:00:16;98907.72;;;16.72;100.00
1616;BME280;801;47.982;7.810;2023-05-08T02:02:46;98910.84;;;16.84;100.00
1616;BME280;801;47.982;7.810;2023-05-08T02:05:14;98906.28;;;16.36;100.00
1616;BME280;801;47.982;7.810;2023-05-08T02:07:43;98910.13;;;16.35;100.00
1616;BME280;801;47.982;7.810;2023-05-08T02:10:12;98902.06;;;16.30;100.00
1616;BME280;801;47.982;7.810;2023-05-08T02:12:42;98902.66;;;16.46;100.00
1616;BME280;801;47.982;7.810;2023-05-08T02:15:11;98907.31;;;16.22;100.00
1616;BME280;801;47.982;7.810;2023-05-08T02:17:40;98900.88;;;16.36;100.00
1616;BME280;801;47.982;7.810;2023-05-08T02:20:10;98905.03;;;16.29;100.00
1616;BME280;801;47.982;7.810;2023-05-08T02:22:40;98899.91;;;16.27;100.00
1616;BME280;801;47.982;7.810;2023-05-08T02:25:09;98903.38;;;16.52;100.00
1616;BME280;801;47.982;7.810;2023-05-08T02:27:39;98908.09;;;16.65;100.00
1616;BME280;801;47.982;7.810;2023-05-08T02:30:09;98912.25;;;16.82;100.00
1616;BME280;801;47.982;7.810;2023-05-08T02:32:37;98906.22;;;16.85;100.00
1616;BME280;801;47.982;7.810;2023-05-08T02:35:08;98914.38;;;16.85;100.00
1616;BME280;801;47.982;7.810;2023-05-08T02:37:38;98917.69;;;16.82;100.00
1616;BME280;801;47.982;7.810;2023-05-08T02:40:08;98917.06;;;16.85;100.00
1616;BME280;801;47.982;7.810;2023-05-08T02:42:35;98915.41;;;16.89;100.00
1616;BME280;801;47.982;7.810;2023-05-08T02:45:02;98915.91;;;16.91;100.00
1616;BME280;801;47.982;7.810;2023-05-08T02:47:36;98908.06;;;16.89;100.00
1616;BME280;801;47.982;7.810;2023-05-08T02:50:11;98918.34;;;16.92;100.00
1616;BME280;801;47.982;7.810;2023-05-08T02:52:43;98906.97;;;16.90;100.00
1616;BME280;801;47.982;7.810;2023-05-08T02:55:20;98913.28;;;16.86;100.00
1616;BME280;801;47.982;7.810;2023-05-08T02:57:52;98914.28;;;16.90;100.00
1616;BME280;801;47.982;7.810;2023-05-08T03:00:27;98916.47;;;16.88;100.00
1616;BME280;801;47.982;7.810;2023-05-08T03:02:58;98916.94;;;16.95;100.00
1616;BME280;801;47.982;7.810;2023-05-08T03:05:29;98910.91;;;16.98;100.00
1616;BME280;801;47.982;7.810;2023-05-08T03:07:59;98910.25;;;16.87;100.00
1616;BME280;801;47.982;7.810;2023-05-08T03:10:32;98911.66;;;16.85;100.00
1616;BME280;801;47.982;7.810;2023-05-08T03:13:02;98909.56;;;16.76;100.00
1616;BME280;801;47.982;7.810;2023-05-08T03:15:33;98902.47;;;16.80;100.00
1616;BME280;801;47.982;7.810;2023-05-08T03:18:05;98897.34;;;16.79;100.00
1616;BME280;801;47.982;7.810;2023-05-08T03:20:37;98900.91;;;16.74;100.00
1616;BME280;801;47.982;7.810;2023-05-08T03:23:07;98901.50;;;16.71;100.00
1616;BME280;801;47.982;7.810;2023-05-08T03:25:35;98892.56;;;16.71;100.00
1616;BME280;801;47.982;7.810;2023-05-08T03:28:04;98893.94;;;16.68;100.00
1616;BME280;801;47.982;7.810;2023-05-08T03:30:32;98896.66;;;16.68;100.00
1616;BME280;801;47.982;7.810;2023-05-08T03:33:00;98892.63;;;16.66;100.00
1616;BME280;801;47.982;7.810;2023-05-08T03:35:29;98898.88;;;16.66;100.00
1616;BME280;801;47.982;7.810;2023-05-08T03:37:58;98893.34;;;16.71;100.00
1616;BME280;801;47.982;7.810;2023-05-08T03:40:26;98895.47;;;16.74;100.00
1616;BME280;801;47.982;7.810;2023-05-08T03:42:53;98900.41;;;16.72;100.00
1616;BME280;801;47.982;7.810;2023-05-08T03:45:20;98903.13;;;16.72;100.00
1616;BME280;801;47.982;7.810;2023-05-08T03:47:48;98908.56;;;16.72;100.00
1616;BME280;801;47.982;7.810;2023-05-08T03:50:14;98911.31;;;16.67;100.00
1616;BME280;801;47.982;7.810;2023-05-08T03:52:41;98913.16;;;16.72;100.00
1616;BME280;801;47.982;7.810;2023-05-08T03:55:09;98914.03;;;16.67;100.00
1616;BME280;801;47.982;7.810;2023-05-08T03:57:40;98909.56;;;16.76;100.00
1616;BME280;801;47.982;7.810;2023-05-08T04:00:13;98913.38;;;16.75;100.00
1616;BME280;801;47.982;7.810;2023-05-08T04:02:46;98906.31;;;16.74;100.00
1616;BME280;801;47.982;7.810;2023-05-08T04:05:20;98907.81;;;16.67;100.00
1616;BME280;801;47.982;7.810;2023-05-08T04:07:50;98916.19;;;16.70;100.00
1616;BME280;801;47.982;7.810;2023-05-08T04:10:23;98916.09;;;16.75;100.00
1616;BME280;801;47.982;7.810;2023-05-08T04:12:58;98918.00;;;16.75;100.00
1616;BME280;801;47.982;7.810;2023-05-08T04:15:30;98919.03;;;16.79;100.00
1616;BME280;801;47.982;7.810;2023-05-08T04:17:59;98916.63;;;16.77;100.00
1616;BME280;801;47.982;7.810;2023-05-08T04:20:26;98919.03;;;16.79;100.00
1616;BME280;801;47.982;7.810;2023-05-08T04:22:55;98927.47;;;16.77;100.00
1616;BME280;801;47.982;7.810;2023-05-08T04:25:24;98928.63;;;16.71;100.00
1616;BME280;801;47.982;7.810;2023-05-08T04:27:51;98925.03;;;16.76;100.00
1616;BME280;801;47.982;7.810;2023-05-08T04:30:20;98926.91;;;16.80;100.00
1616;BME280;801;47.982;7.810;2023-05-08T04:32:48;98926.91;;;16.80;100.00
1616;BME280;801;47.982;7.810;2023-05-08T04:35:15;98925.50;;;16.83;100.00
1616;BME280;801;47.982;7.810;2023-05-08T04:37:41;98929.84;;;16.84;100.00
1616;BME280;801;47.982;7.810;2023-05-08T04:40:08;98927.84;;;16.90;100.00
1616;BME280;801;47.982;7.810;2023-05-08T04:42:36;98929.56;;;16.86;100.00
1616;BME280;801;47.982;7.810;2023-05-08T04:45:07;98938.72;;;16.90;100.00
1616;BME280;801;47.982;7.810;2023-05-08T04:47:34;98935.00;;;16.86;100.00
1616;BME280;801;47.982;7.810;2023-05-08T04:50:00;98939.91;;;16.84;100.00
1616;BME280;801;47.982;7.810;2023-05-08T04:52:27;98934.47;;;16.84;100.00
1616;BME280;801;47.982;7.810;2023-05-08T04:54:53;98936.69;;;16.82;100.00
1616;BME280;801;47.982;7.810;2023-05-08T04:57:20;98933.97;;;16.82;100.00
1616;BME280;801;47.982;7.810;2023-05-08T04:59:48;98939.38;;;16.82;100.00
1616;BME280;801;47.982;7.810;2023-05-08T05:02:15;98944.84;;;16.76;100.00
1616;BME280;801;47.982;7.810;2023-05-08T05:04:41;98944.56;;;16.78;100.00
1616;BME280;801;47.982;7.810;2023-05-08T05:07:08;98940.44;;;16.86;100.00
1616;BME280;801;47.982;7.810;2023-05-08T05:09:34;98947.44;;;16.87;100.00
1616;BME280;801;47.982;7.810;2023-05-08T05:12:03;98948.84;;;16.84;100.00
1616;BME280;801;47.982;7.810;2023-05-08T05:14:30;98951.56;;;16.84;100.00
1616;BME280;801;47.982;7.810;2023-05-08T05:16:58;98950.25;;;16.82;100.00
1616;BME280;801;47.982;7.810;2023-05-08T05:19:24;98947.00;;;16.79;100.00
1616;BME280;801;47.982;7.810;2023-05-08T05:21:51;98955.69;;;16.82;100.00
1616;BME280;801;47.982;7.810;2023-05-08T05:24:18;98951.28;;;16.86;100.00
1616;BME280;801;47.982;7.810;2023-05-08T05:26:44;98956.72;;;16.86;100.00
1616;BME280;801;47.982;7.810;2023-05-08T05:29:11;98953.13;;;16.90;100.00
1616;BME280;801;47.982;7.810;2023-05-08T05:31:37;98957.94;;;16.93;100.00
1616;BME280;801;47.982;7.810;2023-05-08T05:34:05;98959.69;;;17.03;100.00
1616;BME280;801;47.982;7.810;2023-05-08T05:36:32;98965.81;;;16.95;100.00
1616;BME280;801;47.982;7.810;2023-05-08T05:38:58;98968.56;;;16.90;100.00
1616;BME280;801;47.982;7.810;2023-05-08T05:41:25;98974.06;;;16.85;100.00
1616;BME280;801;47.982;7.810;2023-05-08T05:43:51;98975.19;;;16.84;100.00
1616;BME280;801;47.982;7.810;2023-05-08T05:46:18;98979.84;;;16.78;100.00
1616;BME280;801;47.982;7.810;2023-05-08T05:48:44;98979.28;;;16.81;100.00
1616;BME280;801;47.982;7.810;2023-05-08T05:51:12;98984.41;;;16.83;100.00
1616;BME280;801;47.982;7.810;2023-05-08T05:53:39;98982.31;;;16.74;100.00
1616;BME280;801;47.982;7.810;2023-05-08T05:56:06;98979.66;;;16.93;100.00
1616;BME280;801;47.982;7.810;2023-05-08T05:58:32;98975.47;;;17.01;100.00
1616;BME280;801;47.982;7.810;2023-05-08T06:00:59;98976.31;;;17.01;100.00
1616;BME280;801;47.982;7.810;2023-05-08T06:03:26;98977.91;;;17.02;100.00
1616;BME280;801;47.982;7.810;2023-05-08T06:05:52;98981.13;;;17.05;100.00
1616;BME280;801;47.982;7.810;2023-05-08T06:08:20;98978.94;;;17.07;100.00
1616;BME280;801;47.982;7.810;2023-05-08T06:10:47;98986.78;;;17.08;100.00
1616;BME280;801;47.982;7.810;2023-05-08T06:13:13;98979.53;;;17.04;100.00
1616;BME280;801;47.982;7.810;2023-05-08T06:15:40;98980.09;;;17.00;100.00
1616;BME280;801;47.982;7.810;2023-05-08T06:18:06;98982.63;;;16.97;100.00
1616;BME280;801;47.982;7.810;2023-05-08T06:20:33;98988.03;;;16.97;100.00
1616;BME280;801;47.982;7.810;2023-05-08T06:23:00;98986.84;;;17.03;100.00
1616;BME280;801;47.982;7.810;2023-05-08T06:25:28;98987.81;;;17.12;100.00
1616;BME280;801;47.982;7.810;2023-05-08T06:27:55;98986.06;;;17.21;100.00
1616;BME280;801;47.982;7.810;2023-05-08T06:30:22;98988.19;;;17.25;100.00
1616;BME280;801;47.982;7.810;2023-05-08T06:32:48;98982.00;;;17.19;100.00
1616;BME280;801;47.982;7.810;2023-05-08T06:35:15;98980.38;;;17.37;100.00
1616;BME280;801;47.982;7.810;2023-05-08T06:37:42;98978.09;;;17.44;100.00
1616;BME280;801;47.982;7.810;2023-05-08T06:40:10;98981.16;;;17.56;100.00
1616;BME280;801;47.982;7.810;2023-05-08T06:42:39;98974.44;;;17.68;100.00
1616;BME280;801;47.982;7.810;2023-05-08T06:45:07;98977.34;;;17.57;100.00
1616;BME280;801;47.982;7.810;2023-05-08T06:47:33;98974.25;;;17.64;100.00
1616;BME280;801;47.982;7.810;2023-05-08T06:50:00;98975.88;;;17.79;100.00
1616;BME280;801;47.982;7.810;2023-05-08T06:52:26;98980.50;;;17.64;100.00
1616;BME280;801;47.982;7.810;2023-05-08T06:54:53;98982.09;;;17.84;100.00
1616;BME280;801;47.982;7.810;2023-05-08T06:57:19;98984.34;;;17.77;100.00
1616;BME280;801;47.982;7.810;2023-05-08T06:59:47;98986.72;;;17.84;100.00
1616;BME280;801;47.982;7.810;2023-05-08T07:02:14;98977.00;;;17.78;100.00
1616;BME280;801;47.982;7.810;2023-05-08T07:04:40;98984.00;;;17.84;100.00
1616;BME280;801;47.982;7.810;2023-05-08T07:07:07;98981.13;;;17.75;100.00
1616;BME280;801;47.982;7.810;2023-05-08T07:09:33;98984.22;;;17.69;100.00
1616;BME280;801;47.982;7.810;2023-05-08T07:12:00;98984.22;;;17.69;100.00
1616;BME280;801;47.982;7.810;2023-05-08T07:14:26;98989.13;;;17.53;100.00
1616;BME280;801;47.982;7.810;2023-05-08T07:16:54;98996.38;;;17.38;100.00
1616;BME280;801;47.982;7.810;2023-05-08T07:19:22;99002.69;;;17.53;100.00
1616;BME280;801;47.982;7.810;2023-05-08T07:21:49;99001.25;;;17.41;100.00
1616;BME280;801;47.982;7.810;2023-05-08T07:24:15;99002.34;;;17.21;100.00
1616;BME280;801;47.982;7.810;2023-05-08T07:26:42;98995.22;;;17.26;100.00
1616;BME280;801;47.982;7.810;2023-05-08T07:29:08;99006.44;;;17.38;100.00
1616;BME280;801;47.982;7.810;2023-05-08T07:31:37;99001.16;;;17.28;100.00
1616;BME280;801;47.982;7.810;2023-05-08T07:34:05;98998.59;;;17.36;100.00
1616;BME280;801;47.982;7.810;2023-05-08T07:36:32;98997.19;;;17.39;100.00
1616;BME280;801;47.982;7.810;2023-05-08T07:38:58;98999.75;;;17.49;100.00
1616;BME280;801;47.982;7.810;2023-05-08T07:41:25;99002.03;;;17.42;100.00
1616;BME280;801;47.982;7.810;2023-05-08T07:43:51;99010.75;;;17.39;100.00
1616;BME280;801;47.982;7.810;2023-05-08T07:46:18;99011.28;;;17.60;100.00
1616;BME280;801;47.982;7.810;2023-05-08T07:48:44;99012.69;;;17.57;100.00
1616;BME280;801;47.982;7.810;2023-05-08T07:51:12;99016.38;;;17.61;100.00
1616;BME280;801;47.982;7.810;2023-05-08T07:53:39;99011.50;;;17.45;100.00
1616;BME280;801;47.982;7.810;2023-05-08T07:56:06;99010.84;;;17.34;100.00
1616;BME280;801;47.982;7.810;2023-05-08T07:58:33;99006.72;;;17.36;100.00
1616;BME280;801;47.982;7.810;2023-05-08T08:00:59;99006.31;;;17.48;100.00
1616;BME280;801;47.982;7.810;2023-05-08T08:03:26;99000.72;;;17.72;100.00
1616;BME280;801;47.982;7.810;2023-05-08T08:05:52;99009.28;;;17.84;100.00
1616;BME280;801;47.982;7.810;2023-05-08T08:08:20;99011.91;;;18.03;100.00
1616;BME280;801;47.982;7.810;2023-05-08T08:10:47;99016.00;;;18.20;100.00
1616;BME280;801;47.982;7.810;2023-05-08T08:13:13;99006.88;;;17.97;100.00
1616;BME280;801;47.982;7.810;2023-05-08T08:15:41;99012.69;;;17.90;100.00
1616;BME280;801;47.982;7.810;2023-05-08T08:18:08;99009.81;;;18.14;100.00
1616;BME280;801;47.982;7.810;2023-05-08T08:20:34;99012.88;;;18.27;100.00
1616;BME280;801;47.982;7.810;2023-05-08T08:23:01;99024.16;;;18.20;100.00
1616;BME280;801;47.982;7.810;2023-05-08T08:25:29;99020.84;;;18.51;100.00
1616;BME280;801;47.982;7.810;2023-05-08T08:27:55;99022.56;;;18.60;100.00
1616;BME280;801;47.982;7.810;2023-05-08T08:30:22;99024.66;;;18.22;100.00
1616;BME280;801;47.982;7.810;2023-05-08T08:32:49;99031.31;;;18.43;100.00
1616;BME280;801;47.982;7.810;2023-05-08T08:35:15;99024.16;;;18.48;100.00
1616;BME280;801;47.982;7.810;2023-05-08T08:37:42;99014.19;;;18.71;100.00
1616;BME280;801;47.982;7.810;2023-05-08T08:40:09;99020.13;;;19.00;100.00
1616;BME280;801;47.982;7.810;2023-05-08T08:42:37;99015.53;;;19.23;100.00
1616;BME280;801;47.982;7.810;2023-05-08T08:45:04;99012.59;;;19.34;100.00
1616;BME280;801;47.982;7.810;2023-05-08T08:47:34;99015.53;;;19.23;100.00
1616;BME280;801;47.982;7.810;2023-05-08T08:50:03;99015.13;;;19.30;100.00
1616;BME280;801;47.982;7.810;2023-05-08T08:52:38;99023.03;;;19.04;100.00
1616;BME280;801;47.982;7.810;2023-05-08T08:55:09;99017.81;;;19.07;100.00
1616;BME280;801;47.982;7.810;2023-05-08T08:57:46;99019.19;;;19.19;100.00
1616;BME280;801;47.982;7.810;2023-05-08T09:00:18;99021.72;;;19.52;100.00
1616;BME280;801;47.982;7.810;2023-05-08T09:02:46;99020.22;;;19.45;100.00
1616;BME280;801;47.982;7.810;2023-05-08T09:05:13;99026.59;;;19.04;100.00
1616;BME280;801;47.982;7.810;2023-05-08T09:07:40;99031.16;;;18.81;100.00
1616;BME280;801;47.982;7.810;2023-05-08T09:10:09;99035.59;;;18.91;100.00
1616;BME280;801;47.982;7.810;2023-05-08T09:12:40;99024.88;;;18.95;100.00
1616;BME280;801;47.982;7.810;2023-05-08T09:15:09;99026.88;;;18.75;100.00
1616;BME280;801;47.982;7.810;2023-05-08T09:17:35;99032.44;;;18.70;100.00
1616;BME280;801;47.982;7.810;2023-05-08T09:20:02;99029.19;;;18.68;100.00
1616;BME280;801;47.982;7.810;2023-05-08T09:22:30;99023.78;;;18.54;100.00
1616;BME280;801;47.982;7.810;2023-05-08T09:24:58;99022.78;;;18.03;100.00
1616;BME280;801;47.982;7.810;2023-05-08T09:27:26;99025.91;;;17.97;100.00
1616;BME280;801;47.982;7.810;2023-05-08T09:30:02;99026.53;;;18.08;100.00
1616;BME280;801;47.982;7.810;2023-05-08T09:32:29;99031.69;;;18.09;100.00
1616;BME280;801;47.982;7.810;2023-05-08T09:34:56;99025.00;;;18.01;100.00
1616;BME280;801;47.982;7.810;2023-05-08T09:37:24;99029.06;;;18.04;100.00
1616;BME280;801;47.982;7.810;2023-05-08T09:39:51;99029.44;;;17.97;100.00
1616;BME280;801;47.982;7.810;2023-05-08T09:42:18;99029.44;;;17.97;100.00
1616;BME280;801;47.982;7.810;2023-05-08T09:44:46;99029.59;;;18.20;100.00
1616;BME280;801;47.982;7.810;2023-05-08T09:47:16;99036.34;;;18.22;100.00
1616;BME280;801;47.982;7.810;2023-05-08T09:49:56;99041.59;;;18.33;100.00
1616;BME280;801;47.982;7.810;2023-05-08T09:52:23;99038.34;;;18.17;100.00
1616;BME280;801;47.982;7.810;2023-05-08T09:54:56;99048.25;;;18.27;100.00
1616;BME280;801;47.982;7.810;2023-05-08T09:57:22;99051.69;;;18.46;100.00
1616;BME280;801;47.982;7.810;2023-05-08T09:59:49;99054.50;;;18.41;100.00
1616;BME280;801;47.982;7.810;2023-05-08T10:02:17;99062.28;;;18.61;100.00
1616;BME280;801;47.982;7.810;2023-05-08T10:04:45;99050.28;;;18.62;100.00
1616;BME280;801;47.982;7.810;2023-05-08T10:07:12;99054.22;;;18.56;100.00
1616;BME280;801;47.982;7.810;2023-05-08T10:09:38;99054.22;;;18.70;100.00
1616;BME280;801;47.982;7.810;2023-05-08T10:12:05;99056.25;;;18.78;100.00
1616;BME280;801;47.982;7.810;2023-05-08T10:14:33;99054.53;;;18.96;100.00
1616;BME280;801;47.982;7.810;2023-05-08T10:17:04;99063.38;;;19.29;100.00
1616;BME280;801;47.982;7.810;2023-05-08T10:19:36;99059.50;;;19.31;100.00
1616;BME280;801;47.982;7.810;2023-05-08T10:22:09;99057.75;;;19.12;100.00
1616;BME280;801;47.982;7.810;2023-05-08T10:24:38;99050.66;;;19.25;100.00
1616;BME280;801;47.982;7.810;2023-05-08T10:27:10;99046.75;;;19.40;100.00
1616;BME280;801;47.982;7.810;2023-05-08T10:29:41;99045.63;;;19.55;100.00
1616;BME280;801;47.982;7.810;2023-05-08T10:32:09;99042.00;;;19.82;100.00
1616;BME280;801;47.982;7.810;2023-05-08T10:34:39;99041.72;;;20.15;100.00
1616;BME280;801;47.982;7.810;2023-05-08T10:37:08;99040.34;;;20.26;100.00
1616;BME280;801;47.982;7.810;2023-05-08T10:39:35;99039.34;;;20.22;100.00
1616;BME280;801;47.982;7.810;2023-05-08T10:42:01;99033.13;;;20.30;100.00
1616;BME280;801;47.982;7.810;2023-05-08T10:44:28;99033.69;;;20.18;100.00
1616;BME280;801;47.982;7.810;2023-05-08T10:47:00;99033.88;;;19.90;100.00
1616;BME280;801;47.982;7.810;2023-05-08T10:49:39;99031.41;;;20.11;100.00
1616;BME280;801;47.982;7.810;2023-05-08T10:52:16;99027.34;;;20.23;100.00
1616;BME280;801;47.982;7.810;2023-05-08T10:55:07;99021.78;;;20.77;100.00
1616;BME280;801;47.982;7.810;2023-05-08T10:57:34;99025.06;;;21.31;100.00
1616;BME280;801;47.982;7.810;2023-05-08T11:00:01;99017.19;;;21.21;100.00
1616;BME280;801;47.982;7.810;2023-05-08T11:02:29;99018.31;;;21.20;100.00
1616;BME280;801;47.982;7.810;2023-05-08T11:05:14;99016.53;;;21.15;100.00
1616;BME280;801;47.982;7.810;2023-05-08T11:07:54;99013.03;;;21.41;100.00
1616;BME280;801;47.982;7.810;2023-05-08T11:10:21;99018.50;;;21.23;100.00
1616;BME280;801;47.982;7.810;2023-05-08T11:12:55;99014.44;;;21.03;100.00
1616;BME280;801;47.982;7.810;2023-05-08T11:15:34;99004.16;;;21.18;100.00
1616;BME280;801;47.982;7.810;2023-05-08T11:18:02;99011.72;;;21.29;100.00
1616;BME280;801;47.982;7.810;2023-05-08T11:20:39;99002.88;;;21.67;100.00
1616;BME280;801;47.982;7.810;2023-05-08T11:23:21;99003.38;;;21.69;100.00
1616;BME280;801;47.982;7.810;2023-05-08T11:25:57;98999.16;;;21.81;100.00
1616;BME280;801;47.982;7.810;2023-05-08T11:28:25;98996.78;;;22.35;100.00
1616;BME280;801;47.982;7.810;2023-05-08T11:30:52;98993.47;;;22.50;100.00
1616;BME280;801;47.982;7.810;2023-05-08T11:33:20;98989.50;;;22.77;100.00
1616;BME280;801;47.982;7.810;2023-05-08T11:35:53;98984.69;;;22.95;100.00
1616;BME280;801;47.982;7.810;2023-05-08T11:38:24;98987.09;;;23.27;100.00
1616;BME280;801;47.982;7.810;2023-05-08T11:40:56;98989.53;;;22.69;100.00
1616;BME280;801;47.982;7.810;2023-05-08T11:46:41;98979.88;;;23.89;100.00
1616;BME280;801;47.982;7.810;2023-05-08T11:49:12;98987.31;;;24.34;100.00
1616;BME280;801;47.982;7.810;2023-05-08T11:51:42;98986.03;;;24.31;100.00
1616;BME280;801;47.982;7.810;2023-05-08T11:54:12;98992.72;;;23.97;99.76
1616;BME280;801;47.982;7.810;2023-05-08T11:56:39;98984.88;;;23.74;99.99
1616;BME280;801;47.982;7.810;2023-05-08T11:59:07;98994.75;;;23.88;99.23
1616;BME280;801;47.982;7.810;2023-05-08T12:01:34;98990.84;;;22.92;100.00
1616;BME280;801;47.982;7.810;2023-05-08T12:04:03;98981.66;;;21.38;100.00
1616;BME280;801;47.982;7.810;2023-05-08T12:06:30;98987.91;;;21.39;100.00
1616;BME280;801;47.982;7.810;2023-05-08T12:08:59;98978.59;;;21.40;100.00
1616;BME280;801;47.982;7.810;2023-05-08T12:11:26;98980.38;;;21.35;100.00
1616;BME280;801;47.982;7.810;2023-05-08T12:13:53;98984.09;;;21.57;100.00
1616;BME280;801;47.982;7.810;2023-05-08T12:16:21;98983.75;;;21.15;100.00
1616;BME280;801;47.982;7.810;2023-05-08T12:18:49;98984.06;;;21.22;100.00
1616;BME280;801;47.982;7.810;2023-05-08T12:21:16;98973.94;;;21.14;100.00
1616;BME280;801;47.982;7.810;2023-05-08T12:23:43;98972.84;;;21.32;100.00
1616;BME280;801;47.982;7.810;2023-05-08T12:26:11;98981.66;;;21.21;100.00
1616;BME280;801;47.982;7.810;2023-05-08T12:28:38;98973.47;;;21.64;100.00
1616;BME280;801;47.982;7.810;2023-05-08T12:31:05;98980.22;;;21.58;100.00
1616;BME280;801;47.982;7.810;2023-05-08T12:33:32;98980.56;;;21.48;100.00
1616;BME280;801;47.982;7.810;2023-05-08T12:35:59;98983.13;;;21.53;100.00
1616;BME280;801;47.982;7.810;2023-05-08T12:38:27;98988.56;;;21.35;100.00
1616;BME280;801;47.982;7.810;2023-05-08T12:40:53;98982.78;;;21.28;100.00
1616;BME280;801;47.982;7.810;2023-05-08T12:43:30;98983.09;;;21.01;100.00
1616;BME280;801;47.982;7.810;2023-05-08T12:45:56;98982.78;;;21.11;100.00
1616;BME280;801;47.982;7.810;2023-05-08T12:48:23;98972.81;;;21.15;100.00
1616;BME280;801;47.982;7.810;2023-05-08T12:50:50;98981.66;;;21.12;100.00
1616;BME280;801;47.982;7.810;2023-05-08T12:53:18;98981.03;;;21.24;100.00
1616;BME280;801;47.982;7.810;2023-05-08T12:55:49;98981.69;;;21.55;100.00
1616;BME280;801;47.982;7.810;2023-05-08T12:58:17;98991.13;;;21.75;100.00
1616;BME280;801;47.982;7.810;2023-05-08T13:00:46;98978.25;;;21.76;100.00
1616;BME280;801;47.982;7.810;2023-05-08T13:03:21;98982.44;;;21.73;100.00
1616;BME280;801;47.982;7.810;2023-05-08T13:05:50;98981.47;;;21.87;100.00
1616;BME280;801;47.982;7.810;2023-05-08T13:08:17;98975.06;;;21.65;100.00
1616;BME280;801;47.982;7.810;2023-05-08T13:10:47;98974.81;;;22.05;100.00
1616;BME280;801;47.982;7.810;2023-05-08T13:13:17;98979.22;;;22.66;100.00
1616;BME280;801;47.982;7.810;2023-05-08T13:15:45;98975.94;;;23.44;100.00
1616;BME280;801;47.982;7.810;2023-05-08T13:18:12;98969.53;;;24.31;96.59
1616;BME280;801;47.982;7.810;2023-05-08T13:20:39;98969.22;;;24.20;92.79
1616;BME280;801;47.982;7.810;2023-05-08T13:23:06;98968.28;;;24.16;91.30
1616;BME280;801;47.982;7.810;2023-05-08T13:25:35;98963.06;;;24.60;86.94
1616;BME280;801;47.982;7.810;2023-05-08T13:28:02;98963.59;;;24.17;86.93
1616;BME280;801;47.982;7.810;2023-05-08T13:30:29;98960.53;;;24.18;87.42
1616;BME280;801;47.982;7.810;2023-05-08T13:32:57;98957.38;;;23.83;86.35
1616;BME280;801;47.982;7.810;2023-05-08T13:35:23;98950.28;;;23.28;88.20
1616;BME280;801;47.982;7.810;2023-05-08T13:37:52;98959.56;;;22.64;91.23